Time;durP1;ratioP1;P1;durP2;ratioP2;P2;SDS_P1;SDS_P2;PMS_P1;PMS_P2;Temp;Humidity;BMP_temperature;BMP_pressure;BME280_temperature;BME280_humidity;BME280_pressure;Samples;Min_cycle;Max_cycle;Signal;HPM_P1;HPM_P2
2022/07/09 00:02:19;;;;;;;13.05;6.68;;;17.10;99.90;;;;;;6283390;28;20054;-74
2022/07/09 00:05:21;;;;;;;11.70;6.53;;;17.00;99.90;;;;;;6250843;28;20520;-74
2022/07/09 00:08:23;;;;;;;14.43;8.13;;;16.90;99.90;;;;;;6250919;28;20045;-74
2022/07/09 00:11:25;;;;;;;10.02;6.22;;;16.80;99.90;;;;;;6250814;28;20049;-74
2022/07/09 00:14:29;;;;;;;12.50;6.75;;;16.70;99.90;;;;;;6250719;28;20049;-74
2022/07/09 00:17:31;;;;;;;9.75;5.25;;;16.60;99.90;;;;;;6282693;28;20084;-74
2022/07/09 00:20:33;;;;;;;10.20;6.57;;;16.60;99.90;;;;;;6250878;28;20049;-74
2022/07/09 00:23:35;;;;;;;14.07;7.97;;;16.60;99.90;;;;;;6250672;28;20083;-74
2022/07/09 00:26:37;;;;;;;7.20;3.47;;;16.70;99.90;;;;;;6250402;28;20045;-74
2022/07/09 00:29:40;;;;;;;12.98;7.75;;;16.70;99.90;;;;;;6250247;28;20068;-74
2022/07/09 00:32:42;;;;;;;5.60;2.22;;;16.90;99.90;;;;;;6250212;28;20041;-74
2022/07/09 00:35:44;;;;;;;7.18;2.85;;;17.00;99.90;;;;;;6250973;28;20057;-74
2022/07/09 00:38:46;;;;;;;14.27;6.90;;;17.20;99.90;;;;;;6250273;28;20052;-74
2022/07/09 00:41:48;;;;;;;13.10;7.18;;;17.30;99.90;;;;;;6282634;28;20060;-74
2022/07/09 00:44:51;;;;;;;14.35;6.88;;;17.30;99.90;;;;;;6250118;28;20045;-74
2022/07/09 00:47:53;;;;;;;6.80;3.55;;;17.20;99.90;;;;;;6265461;28;20049;-73
2022/07/09 00:50:55;;;;;;;13.20;6.57;;;17.10;99.90;;;;;;6249782;28;20049;-74
2022/07/09 00:53:58;;;;;;;7.43;3.92;;;17.20;99.90;;;;;;6249842;28;20494;-74
2022/07/09 00:57:00;;;;;;;12.63;5.68;;;17.10;99.90;;;;;;6250146;28;20055;-74
2022/07/09 01:00:04;;;;;;;3.88;1.95;;;17.10;99.90;;;;;;6282263;28;20054;-74
2022/07/09 01:03:06;;;;;;;14.15;5.95;;;17.20;99.90;;;;;;6249483;28;20521;-74
2022/07/09 01:06:08;;;;;;;6.00;3.03;;;17.40;99.90;;;;;;6281826;28;20052;-74
2022/07/09 01:09:10;;;;;;;5.93;3.10;;;17.60;99.90;;;;;;6249582;28;20050;-74
2022/07/09 01:12:12;;;;;;;4.90;2.35;;;17.70;99.90;;;;;;6281723;28;20053;-74
2022/07/09 01:15:16;;;;;;;6.40;4.28;;;17.90;99.90;;;;;;6249604;28;20041;-74
2022/07/09 01:18:18;;;;;;;9.00;5.38;;;18.10;99.90;;;;;;6248980;28;20045;-74
2022/07/09 01:21:21;;;;;;;5.75;3.55;;;17.90;99.90;;;;;;6249499;28;20076;-74
2022/07/09 01:24:23;;;;;;;3.55;1.77;;;17.70;99.90;;;;;;6281384;28;20411;-74
2022/07/09 01:27:25;;;;;;;3.65;1.92;;;17.70;99.90;;;;;;6249067;28;20049;-74
2022/07/09 01:30:29;;;;;;;7.35;3.55;;;17.90;99.90;;;;;;6249161;28;20056;-74
2022/07/09 01:33:31;;;;;;;7.43;3.78;;;18.20;99.90;;;;;;6248757;28;20052;-74
2022/07/09 01:36:35;;;;;;;8.27;4.47;;;18.40;99.90;;;;;;6248784;28;20410;-74
2022/07/09 01:39:49;;;;;;;5.57;2.45;;;18.40;99.90;;;;;;6249138;28;20052;-74
2022/07/09 01:42:51;;;;;;;12.20;5.78;;;18.40;99.90;;;;;;6280939;28;20490;-74
2022/07/09 01:45:53;;;;;;;8.93;5.18;;;18.60;99.90;;;;;;6280992;28;20422;-74
2022/07/09 01:48:55;;;;;;;8.75;5.38;;;18.50;99.90;;;;;;6247727;28;20710;-74
2022/07/09 01:51:59;;;;;;;2.87;2.07;;;18.40;99.90;;;;;;6248260;28;20046;-74
2022/07/09 01:55:01;;;;;;;5.85;2.60;;;18.30;99.90;;;;;;6248642;28;20045;-75
2022/07/09 01:58:04;;;;;;;8.60;5.88;;;18.40;99.90;;;;;;6280306;28;20041;-75
2022/07/09 02:01:06;;;;;;;8.35;5.32;;;18.30;99.90;;;;;;6280461;28;20057;-75
2022/07/09 02:04:08;;;;;;;7.90;3.92;;;18.20;99.90;;;;;;6248163;28;20046;-75
2022/07/09 02:07:11;;;;;;;8.60;5.50;;;18.20;99.90;;;;;;6248365;28;20049;-75
2022/07/09 02:10:13;;;;;;;7.80;4.50;;;18.20;99.90;;;;;;6280014;28;20057;-75
2022/07/09 02:13:15;;;;;;;4.60;2.17;;;18.20;99.90;;;;;;6280182;28;20497;-75
2022/07/09 02:16:17;;;;;;;3.28;1.73;;;18.30;99.90;;;;;;6248060;28;20049;-75
2022/07/09 02:19:19;;;;;;;10.43;6.03;;;18.40;99.90;;;;;;6280030;28;20053;-74
2022/07/09 02:22:23;;;;;;;7.55;4.63;;;18.40;99.90;;;;;;6247869;28;20060;-75
2022/07/09 02:25:24;;;;;;;7.35;4.85;;;18.40;99.90;;;;;;6247509;28;20414;-74
2022/07/09 02:28:26;;;;;;;11.75;5.50;;;18.40;99.90;;;;;;6247568;28;20060;-74
2022/07/09 02:31:28;;;;;;;5.28;2.58;;;18.10;99.90;;;;;;6247744;28;20057;-74
2022/07/09 02:34:30;;;;;;;6.07;3.35;;;18.30;99.90;;;;;;6279962;28;20061;-74
2022/07/09 02:37:34;;;;;;;3.58;1.60;;;18.20;99.90;;;;;;6279795;28;20474;-74
2022/07/09 02:40:36;;;;;;;6.00;3.67;;;18.40;99.90;;;;;;6279790;28;20046;-75
2022/07/09 02:43:38;;;;;;;4.93;1.90;;;18.90;99.90;;;;;;6247648;28;20049;-74
2022/07/09 02:46:39;;;;;;;14.85;6.75;;;19.30;99.90;;;;;;6246537;28;20068;-74
2022/07/09 02:49:41;;;;;;;7.43;3.58;;;19.00;99.90;;;;;;6246749;28;20139;-75
2022/07/09 02:52:45;;;;;;;5.57;3.05;;;18.80;99.90;;;;;;6279829;28;20045;-75
2022/07/09 02:55:47;;;;;;;3.67;1.90;;;19.20;99.90;;;;;;6279517;28;20060;-75
2022/07/09 02:58:49;;;;;;;16.75;7.45;;;19.40;99.90;;;;;;6247095;28;20053;-75
2022/07/09 03:01:51;;;;;;;18.52;7.07;;;19.50;99.90;;;;;;6246793;28;20041;-74
2022/07/09 03:04:53;;;;;;;4.20;1.95;;;19.30;99.90;;;;;;6279162;28;20045;-75
2022/07/09 03:07:56;;;;;;;9.50;5.50;;;19.20;99.90;;;;;;6247464;28;20041;-75
2022/07/09 03:10:58;;;;;;;12.98;4.63;;;19.50;99.90;;;;;;6246876;28;20406;-75
2022/07/09 03:14:00;;;;;;;4.72;1.60;;;19.80;99.90;;;;;;6279398;28;20067;-75
2022/07/09 03:17:02;;;;;;;6.68;1.77;;;20.00;99.90;;;;;;6278723;28;20056;-74
2022/07/09 03:20:04;;;;;;;10.35;4.40;;;20.10;99.90;;;;;;6279241;28;20179;-75
2022/07/09 03:23:08;;;;;;;4.13;1.60;;;20.10;99.90;;;;;;6246904;28;20045;-75
2022/07/09 03:26:10;;;;;;;;;;;20.20;99.90;;;;;;6247204;28;20064;-75
2022/07/09 03:29:12;;;;;;;2.83;1.60;;;20.40;99.90;;;;;;6245120;28;19921;-75
2022/07/09 03:32:14;;;;;;;8.73;5.43;;;20.50;99.90;;;;;;6278891;28;20058;-75
2022/07/09 03:35:16;;;;;;;2.97;1.40;;;20.30;99.90;;;;;;6247074;28;20048;-75
2022/07/09 03:38:19;;;;;;;5.75;1.92;;;20.20;99.90;;;;;;6245412;28;20049;-75
2022/07/09 03:41:21;;;;;;;6.60;3.03;;;20.10;99.90;;;;;;6262346;28;20053;-75
2022/07/09 03:44:23;;;;;;;4.05;1.65;;;20.10;99.90;;;;;;6261814;28;20056;-75
2022/07/09 03:47:25;;;;;;;3.70;1.70;;;20.00;99.90;;;;;;6261812;28;20045;-75
2022/07/09 03:50:27;;;;;;;5.55;2.60;;;19.90;99.90;;;;;;6261912;28;20498;-75
2022/07/09 03:53:30;;;;;;;5.18;2.45;;;20.00;99.90;;;;;;6262110;28;20502;-75
2022/07/09 03:56:32;;;;;;;11.35;5.03;;;20.00;99.90;;;;;;6246795;28;20045;-75
2022/07/09 03:59:34;;;;;;;11.50;4.70;;;19.80;99.90;;;;;;6246614;28;20045;-75
2022/07/09 04:02:36;;;;;;;6.18;2.63;;;19.50;99.90;;;;;;6246379;28;20053;-75
2022/07/09 04:05:38;;;;;;;4.13;1.83;;;19.60;99.90;;;;;;6261666;28;20045;-75
2022/07/09 04:08:42;;;;;;;5.28;2.42;;;19.60;99.90;;;;;;6246455;28;20470;-75
2022/07/09 04:11:46;;;;;;;3.95;1.65;;;19.40;99.90;;;;;;6261601;28;20058;-75
2022/07/09 04:14:49;;;;;;;8.43;3.00;;;19.50;99.90;;;;;;6250372;28;20053;-74
2022/07/09 04:17:51;;;;;;;10.85;4.40;;;19.80;99.90;;;;;;6250748;28;20053;-75
2022/07/09 04:20:54;;;;;;;2.90;1.48;;;19.90;99.90;;;;;;6266210;28;20061;-75
2022/07/09 04:23:57;;;;;;;11.73;5.18;;;19.80;99.90;;;;;;6250873;28;20191;-74
2022/07/09 04:26:59;;;;;;;4.95;2.53;;;19.80;99.90;;;;;;6265975;28;20049;-75
2022/07/09 04:30:01;;;;;;;2.85;1.58;;;19.80;99.90;;;;;;6250335;28;20202;-75
2022/07/09 04:33:03;;;;;;;8.35;3.22;;;20.10;99.90;;;;;;6265908;28;20095;-75
2022/07/09 04:36:06;;;;;;;2.85;1.48;;;20.30;99.90;;;;;;6282670;28;20532;-75
2022/07/09 04:39:09;;;;;;;26.40;5.70;;;20.30;99.90;;;;;;6282184;28;20068;-75
2022/07/09 04:42:12;;;;;;;;;;;20.50;99.90;;;;;;6283085;28;20108;-75
2022/07/09 04:45:15;;;;;;;5.75;2.58;;;20.40;99.90;;;;;;6249148;28;20337;-75
2022/07/09 04:48:17;;;;;;;3.80;1.60;;;20.40;99.90;;;;;;6250150;28;20124;-75
2022/07/09 04:51:19;;;;;;;11.77;4.90;;;20.40;99.90;;;;;;6282041;28;20049;-74
2022/07/09 04:54:22;;;;;;;3.40;1.77;;;20.40;99.90;;;;;;6282119;28;20497;-75
2022/07/09 04:57:24;;;;;;;7.47;3.00;;;20.50;99.90;;;;;;6250116;28;20053;-74
2022/07/09 05:00:26;;;;;;;4.05;1.63;;;20.80;99.90;;;;;;6282121;28;20387;-75
2022/07/09 05:03:28;;;;;;;3.70;1.80;;;20.70;99.90;;;;;;6249821;28;20049;-75
2022/07/09 05:06:30;;;;;;;3.35;1.60;;;20.70;99.90;;;;;;6249798;28;20057;-75
2022/07/09 05:09:33;;;;;;;3.42;1.42;;;20.60;99.90;;;;;;6249424;28;20057;-75
2022/07/09 05:12:35;;;;;;;;;;;20.80;99.90;;;;;;6281952;28;20049;-75
2022/07/09 05:15:37;;;;;;;4.18;2.92;;;20.90;99.90;;;;;;6249372;28;20377;-75
2022/07/09 05:18:39;;;;;;;4.63;2.35;;;21.00;99.90;;;;;;6249362;28;20053;-74
2022/07/09 05:21:42;;;;;;;2.30;1.45;;;21.00;99.90;;;;;;6281466;28;20449;-75
2022/07/09 05:24:45;;;;;;;4.50;1.80;;;21.00;99.90;;;;;;6280253;28;20487;-75
2022/07/09 05:27:48;;;;;;;9.02;4.07;;;20.90;99.90;;;;;;6280898;28;20060;-74
2022/07/09 05:30:50;;;;;;;8.60;4.45;;;20.90;99.90;;;;;;6249006;28;20053;-75
2022/07/09 05:33:52;;;;;;;5.53;3.25;;;20.60;99.90;;;;;;6249253;28;20049;-74
2022/07/09 05:36:54;;;;;;;4.18;1.30;;;20.40;99.90;;;;;;6249449;28;20046;-75
2022/07/09 05:40:00;;;;;;;3.67;1.33;;;20.50;99.90;;;;;;6263959;28;20071;-75
2022/07/09 05:43:02;;;;;;;11.88;4.50;;;20.40;99.90;;;;;;6248607;28;20547;-75
2022/07/09 05:46:04;;;;;;;4.45;1.50;;;20.40;99.90;;;;;;6249098;28;20046;-74
2022/07/09 05:49:06;;;;;;;7.25;3.25;;;20.30;99.90;;;;;;6248475;28;20042;-75
2022/07/09 05:52:08;;;;;;;7.88;3.53;;;20.60;99.90;;;;;;6263690;28;20050;-74
2022/07/09 05:55:11;;;;;;;2.83;1.45;;;20.60;99.90;;;;;;6248400;28;20045;-75
2022/07/09 05:58:13;;;;;;;;;;;20.60;99.90;;;;;;6249004;28;20513;-75
2022/07/09 06:01:15;;;;;;;2.88;1.80;;;20.90;99.90;;;;;;6248137;28;19927;-75
2022/07/09 06:04:17;;;;;;;4.30;1.70;;;20.90;99.90;;;;;;6248117;28;20049;-75
2022/07/09 06:07:21;;;;;;;4.72;1.50;;;21.00;99.90;;;;;;6248460;28;20056;-75
2022/07/09 06:10:24;;;;;;;2.95;1.80;;;21.20;99.90;;;;;;6263713;28;20060;-75
2022/07/09 06:13:26;;;;;;;7.55;2.90;;;21.40;99.90;;;;;;6248079;28;20049;-74
2022/07/09 06:16:28;;;;;;;8.13;3.60;;;21.30;99.90;;;;;;6280181;28;20053;-73
2022/07/09 06:19:30;;;;;;;3.28;1.70;;;21.10;99.90;;;;;;6247677;28;20053;-75
2022/07/09 06:22:32;;;;;;;4.00;1.83;;;21.00;99.90;;;;;;6248049;28;20056;-74
2022/07/09 06:25:37;;;;;;;5.80;2.85;;;21.20;99.90;;;;;;6263372;28;20056;-74
2022/07/09 06:28:39;;;;;;;6.88;3.03;;;21.40;99.90;;;;;;6262823;28;20054;-74
2022/07/09 06:31:41;;;;;;;4.18;1.63;;;21.50;99.90;;;;;;6247907;28;20053;-75
2022/07/09 06:34:43;;;;;;;2.15;1.52;;;21.50;99.90;;;;;;6279898;28;20053;-75
2022/07/09 06:37:45;;;;;;;5.90;2.15;;;21.40;99.90;;;;;;6246994;28;20414;-75
2022/07/09 06:40:48;;;;;;;6.13;2.35;;;21.00;99.90;;;;;;6279332;28;20053;-75
2022/07/09 06:43:50;;;;;;;2.97;1.77;;;21.00;99.90;;;;;;6279660;28;20439;-75
2022/07/09 06:46:52;;;;;;;3.35;2.03;;;20.70;99.90;;;;;;6279258;28;20053;-75
2022/07/09 06:49:54;;;;;;;5.88;3.13;;;20.80;99.90;;;;;;6247257;28;20048;-75
2022/07/09 06:52:56;;;;;;;4.30;1.63;;;20.70;99.90;;;;;;6279078;28;20076;-75
2022/07/09 06:55:59;;;;;;;8.13;3.88;;;20.50;99.90;;;;;;6279396;28;20473;-74
2022/07/09 06:59:01;;;;;;;4.25;1.95;;;20.40;99.90;;;;;;6279041;28;20053;-75
2022/07/09 07:02:04;;;;;;;7.20;3.53;;;20.50;99.90;;;;;;6279232;28;20513;-75
2022/07/09 07:05:06;;;;;;;2.80;1.50;;;20.70;99.90;;;;;;6247075;28;20415;-74
2022/07/09 07:08:09;;;;;;;4.37;2.07;;;20.60;99.90;;;;;;6279063;28;20047;-74
2022/07/09 07:11:12;;;;;;;10.35;3.42;;;20.60;99.90;;;;;;6246772;28;20057;-72
2022/07/09 07:14:14;;;;;;;6.10;3.03;;;20.30;99.90;;;;;;6245618;28;20053;-72
2022/07/09 07:17:16;;;;;;;7.43;3.38;;;20.20;99.90;;;;;;6246544;28;20417;-72
2022/07/09 07:20:22;;;;;;;7.45;3.63;;;20.10;99.90;;;;;;6246880;28;20049;-74
2022/07/09 07:23:24;;;;;;;8.63;3.65;;;19.80;99.90;;;;;;6246769;28;20529;-74
2022/07/09 07:26:28;;;;;;;4.88;2.25;;;19.70;99.90;;;;;;6278920;28;20053;-75
2022/07/09 07:29:29;;;;;;;5.78;2.25;;;19.70;99.90;;;;;;6246505;28;20053;-75
2022/07/09 07:32:31;;;;;;;5.28;2.47;;;20.00;99.90;;;;;;6246702;28;20053;-75
2022/07/09 07:35:33;;;;;;;2.90;1.40;;;20.20;99.90;;;;;;6262183;28;20075;-75
2022/07/09 07:38:36;;;;;;;6.03;1.67;;;20.40;99.90;;;;;;6246927;28;20041;-75
2022/07/09 07:41:39;;;;;;;2.63;1.60;;;20.50;99.90;;;;;;6261953;28;20486;-75
2022/07/09 07:44:41;;;;;;;1.95;1.23;;;20.70;99.90;;;;;;6246741;28;20049;-75
2022/07/09 07:47:43;;;;;;;5.68;1.85;;;20.70;99.90;;;;;;6247653;28;20060;-75
2022/07/09 07:50:45;;;;;;;2.60;1.02;;;20.90;99.90;;;;;;6251395;28;20056;-74
2022/07/09 07:53:47;;;;;;;3.30;1.90;;;21.00;99.90;;;;;;6251410;28;20046;-74
2022/07/09 07:56:51;;;;;;;1.90;1.23;;;21.10;99.90;;;;;;6251819;28;20418;-74
2022/07/09 07:59:53;;;;;;;4.22;1.83;;;21.30;99.90;;;;;;6251151;28;20045;-74
2022/07/09 08:02:55;;;;;;;5.07;1.85;;;21.60;99.90;;;;;;6266320;28;20050;-74
2022/07/09 08:05:57;;;;;;;1.83;1.35;;;21.80;99.90;;;;;;6250892;28;20053;-74
2022/07/09 08:08:59;;;;;;;5.15;1.85;;;21.90;99.90;;;;;;6250906;28;20144;-75
2022/07/09 08:12:02;;;;;;;4.22;1.60;;;21.70;99.90;;;;;;6266147;28;20049;-75
2022/07/09 08:15:05;;;;;;;5.45;1.73;;;21.30;99.90;;;;;;6283143;28;20045;-75
2022/07/09 08:18:08;;;;;;;3.55;1.70;;;21.20;99.90;;;;;;6250610;28;20057;-74
2022/07/09 08:21:10;;;;;;;3.83;1.40;;;21.30;99.90;;;;;;6283001;28;20177;-74
2022/07/09 08:24:12;;;;;;;2.80;1.10;;;21.50;99.90;;;;;;6250543;28;20041;-74
2022/07/09 08:27:15;;;;;;;4.82;2.00;;;21.60;99.90;;;;;;6250217;28;20065;-74
2022/07/09 08:30:17;;;;;;;5.82;1.60;;;21.90;99.90;;;;;;6265747;28;20049;-74
2022/07/09 08:33:19;;;;;;;4.20;1.58;;;21.60;99.90;;;;;;6250473;28;20051;-75
2022/07/09 08:36:21;;;;;;;5.28;1.48;;;21.00;99.90;;;;;;6282571;28;20156;-75
2022/07/09 08:39:23;;;;;;;2.80;1.20;;;20.70;99.90;;;;;;6250060;28;20057;-75
2022/07/09 08:42:27;;;;;;;4.28;1.35;;;21.00;99.90;;;;;;6250142;28;20076;-75
2022/07/09 08:45:30;;;;;;;;;;;20.80;99.90;;;;;;6250643;28;20046;-75
2022/07/09 08:48:34;;;;;;;4.10;1.70;;;20.40;99.90;;;;;;6250239;28;19921;-75
2022/07/09 08:51:37;;;;;;;6.50;1.77;;;20.30;99.90;;;;;;6250141;28;20064;-75
2022/07/09 08:54:40;;;;;;;4.53;1.63;;;20.20;99.90;;;;;;6250189;28;20081;-75
2022/07/09 08:57:43;;;;;;;5.75;1.75;;;20.10;99.90;;;;;;6249964;28;20052;-75
2022/07/09 09:00:46;;;;;;;3.95;1.20;;;20.20;99.90;;;;;;6281278;28;20133;-74
2022/07/09 09:03:48;;;;;;;6.55;1.50;;;20.50;99.90;;;;;;6249869;28;20053;-75
2022/07/09 09:06:50;;;;;;;4.00;1.33;;;20.80;99.90;;;;;;6249632;28;20421;-75
2022/07/09 09:09:52;;;;;;;6.25;1.73;;;20.90;99.90;;;;;;6248621;28;20060;-75
2022/07/09 09:13:00;;;;;;;12.52;2.45;;;20.90;99.90;;;;;;6281487;28;20064;-74
2022/07/09 09:16:06;;;;;;;7.57;3.22;;;20.70;99.90;;;;;;6249596;28;20055;-74
2022/07/09 09:19:10;;;;;;;3.08;1.48;;;20.30;99.90;;;;;;6249259;28;20046;-74
2022/07/09 09:22:16;;;;;;;5.40;1.70;;;20.50;99.90;;;;;;6249342;28;20398;-74
2022/07/09 09:25:19;;;;;;;3.38;1.40;;;20.80;99.90;;;;;;6249231;28;20049;-74
2022/07/09 09:28:22;;;;;;;5.85;1.30;;;20.50;99.90;;;;;;6248903;28;20064;-75
2022/07/09 09:31:27;;;;;;;4.88;1.40;;;20.80;99.90;;;;;;6264250;28;20053;-74
2022/07/09 09:34:29;;;;;;;6.03;1.55;;;20.80;99.90;;;;;;6249161;28;20053;-74
2022/07/09 09:37:31;;;;;;;5.18;1.60;;;20.90;99.90;;;;;;6249064;28;20495;-74
2022/07/09 09:40:35;;;;;;;4.53;1.50;;;20.70;99.90;;;;;;6264221;28;20053;-74
2022/07/09 09:43:39;;;;;;;4.40;1.33;;;20.90;99.90;;;;;;6247780;28;20401;-74
2022/07/09 09:46:42;;;;;;;5.07;1.60;;;20.70;99.90;;;;;;6249031;28;20052;-74
2022/07/09 09:49:46;;;;;;;6.15;1.50;;;20.80;99.90;;;;;;6248345;28;20199;-74
2022/07/09 09:52:49;;;;;;;;;;;20.70;99.90;;;;;;6264153;28;20057;-74
2022/07/09 09:55:51;;;;;;;4.35;1.58;;;20.60;99.90;;;;;;6248628;28;19921;-74
2022/07/09 09:58:55;;;;;;;4.05;1.48;;;20.70;99.90;;;;;;6264096;28;20053;-75
2022/07/09 10:01:57;;;;;;;3.30;1.13;;;21.00;99.90;;;;;;6263899;28;20053;-74
2022/07/09 10:05:00;;;;;;;4.95;1.58;;;21.10;99.90;;;;;;6263880;28;20045;-75
2022/07/09 10:08:02;;;;;;;8.02;1.95;;;21.20;99.90;;;;;;6263715;28;20056;-74
2022/07/09 10:11:04;;;;;;;6.55;1.73;;;21.40;99.90;;;;;;6247365;28;20517;-74
2022/07/09 10:14:08;;;;;;;3.92;1.80;;;21.30;99.90;;;;;;6247988;28;20072;-74
2022/07/09 10:17:13;;;;;;;7.68;2.03;;;21.40;99.90;;;;;;6246433;28;20053;-74
2022/07/09 10:20:15;;;;;;;5.63;2.90;;;21.30;99.90;;;;;;6247854;28;20573;-74
2022/07/09 10:23:23;;;;;;;5.68;2.95;;;21.20;99.90;;;;;;6263451;28;20387;-75
2022/07/09 10:26:37;;;;;;;5.60;1.92;;;21.00;99.90;;;;;;6247763;28;20053;-74
2022/07/09 10:29:54;;;;;;;5.28;2.00;;;21.00;99.90;;;;;;6247620;28;20049;-74
2022/07/09 10:33:06;;;;;;;6.32;2.30;;;21.20;99.90;;;;;;6247461;28;20049;-74
2022/07/09 10:36:15;;;;;;;6.18;1.85;;;21.30;99.90;;;;;;6247673;28;20049;-74
2022/07/09 10:39:17;;;;;;;6.90;2.75;;;21.10;99.90;;;;;;6247606;28;20045;-74
2022/07/09 10:42:22;;;;;;;3.72;1.55;;;21.10;99.90;;;;;;6247564;28;20459;-74
2022/07/09 10:45:27;;;;;;;6.28;2.03;;;21.10;99.90;;;;;;6247886;28;20107;-74
2022/07/09 10:48:32;;;;;;;7.93;1.80;;;20.90;99.90;;;;;;6247453;28;20117;-74
2022/07/09 10:51:36;;;;;;;8.95;1.90;;;20.30;99.90;;;;;;6247387;28;20090;-74
2022/07/09 10:54:46;;;;;;;3.67;1.45;;;19.40;99.90;;;;;;6247411;28;20056;-74
2022/07/09 10:57:49;;;;;;;3.40;1.48;;;19.10;99.90;;;;;;6247537;28;20049;-73
2022/07/09 11:00:57;;;;;;;6.95;1.90;;;18.60;99.90;;;;;;6279456;28;20337;-74
2022/07/09 11:03:59;;;;;;;13.23;3.30;;;18.40;99.90;;;;;;6279319;28;20060;-74
2022/07/09 11:07:02;;;;;;;9.68;2.35;;;18.50;99.90;;;;;;6279271;28;20054;-74
2022/07/09 11:10:04;;;;;;;10.02;2.22;;;18.80;99.90;;;;;;6279273;28;20541;-73
2022/07/09 11:13:08;;;;;;;10.95;2.65;;;19.00;99.90;;;;;;6246974;28;20053;-74
2022/07/09 11:16:12;;;;;;;9.15;2.20;;;18.70;99.90;;;;;;6262462;28;20171;-74
2022/07/09 11:19:14;;;;;;;9.82;2.45;;;18.80;99.90;;;;;;6279216;28;20494;-74
2022/07/09 11:22:16;;;;;;;9.85;2.35;;;19.00;99.90;;;;;;6249141;28;20046;-73
2022/07/09 11:25:19;;;;;;;9.65;2.40;;;18.70;99.90;;;;;;6251944;28;20524;-74
2022/07/09 11:28:23;;;;;;;9.38;1.95;;;18.80;99.90;;;;;;6251828;28;20049;-74
2022/07/09 11:31:26;;;;;;;8.25;2.10;;;18.90;99.90;;;;;;6251701;28;20042;-74
2022/07/09 11:34:28;;;;;;;7.53;1.98;;;18.80;99.90;;;;;;6267457;28;20057;-74
2022/07/09 11:37:30;;;;;;;10.63;1.90;;;18.80;99.90;;;;;;6251620;28;20053;-74
2022/07/09 11:40:33;;;;;;;10.07;1.95;;;18.80;99.90;;;;;;6251895;28;20049;-74
2022/07/09 11:43:35;;;;;;;8.30;2.00;;;18.70;99.90;;;;;;6267162;28;20509;-74
2022/07/09 11:46:38;;;;;;;9.88;1.95;;;18.90;99.90;;;;;;6267127;28;20049;-74
2022/07/09 11:49:41;;;;;;;8.20;1.88;;;19.10;99.90;;;;;;6251376;28;20091;-75
2022/07/09 11:52:48;;;;;;;8.95;2.08;;;19.50;99.90;;;;;;6251358;28;20058;-75
2022/07/09 11:56:01;;;;;;;7.45;1.80;;;19.60;99.90;;;;;;6266957;28;20053;-75
2022/07/09 11:59:03;;;;;;;6.45;1.52;;;19.80;99.90;;;;;;6249937;28;20053;-75
2022/07/09 12:02:06;;;;;;;9.27;1.63;;;19.70;99.90;;;;;;6251165;28;20049;-74
2022/07/09 12:05:10;;;;;;;5.30;1.30;;;19.70;99.90;;;;;;6251406;28;20049;-74
2022/07/09 12:08:12;;;;;;;6.45;1.45;;;19.40;99.90;;;;;;6251351;28;20041;-75
2022/07/09 12:11:14;;;;;;;5.10;1.50;;;19.30;99.90;;;;;;6251238;28;20513;-74
2022/07/09 12:14:16;;;;;;;6.05;1.08;;;19.30;99.90;;;;;;6250707;28;20053;-75
2022/07/09 12:17:20;;;;;;;7.10;1.88;;;19.50;99.90;;;;;;6250932;28;20048;-74
2022/07/09 12:20:23;;;;;;;4.68;1.10;;;19.60;99.90;;;;;;6251078;28;20101;-75
2022/07/09 12:23:26;;;;;;;8.88;1.60;;;19.80;99.90;;;;;;6266056;28;20056;-75
2022/07/09 12:26:29;;;;;;;7.22;2.40;;;19.90;99.90;;;;;;6266117;28;20049;-74
2022/07/09 12:29:31;;;;;;;7.10;2.00;;;19.60;99.90;;;;;;6250235;28;20132;-75
2022/07/09 12:32:35;;;;;;;6.28;1.80;;;19.60;99.90;;;;;;6265696;28;20199;-75
2022/07/09 12:35:37;;;;;;;7.47;2.35;;;19.60;99.90;;;;;;6249895;28;20056;-74
2022/07/09 12:38:39;;;;;;;6.43;1.83;;;19.70;99.90;;;;;;6282646;28;20406;-75
2022/07/09 12:41:41;;;;;;;6.60;2.28;;;19.80;99.90;;;;;;6250183;28;20510;-75
2022/07/09 12:44:43;;;;;;;6.60;2.00;;;19.70;99.90;;;;;;6282238;28;20049;-74
2022/07/09 12:47:47;;;;;;;5.07;2.13;;;19.60;99.90;;;;;;6282309;28;20597;-76
2022/07/09 12:50:48;;;;;;;5.68;1.27;;;19.50;99.90;;;;;;6282444;28;20107;-75
2022/07/09 12:53:50;;;;;;;6.78;2.05;;;19.80;99.90;;;;;;6250115;28;20053;-75
2022/07/09 12:56:52;;;;;;;5.85;0.90;;;19.80;99.90;;;;;;6282209;28;20046;-75
2022/07/09 12:59:54;;;;;;;6.18;1.23;;;19.80;99.90;;;;;;6249974;28;20056;-74
2022/07/09 13:02:58;;;;;;;4.68;1.88;;;19.50;99.90;;;;;;6250543;28;20054;-75
2022/07/09 13:06:00;;;;;;;5.60;1.30;;;19.20;99.90;;;;;;6281750;28;20068;-75
2022/07/09 13:09:03;;;;;;;4.93;1.30;;;19.70;99.90;;;;;;6249562;28;20513;-75
2022/07/09 13:12:05;;;;;;;;;;;20.00;99.90;;;;;;6250222;28;20045;-75
2022/07/09 13:15:08;;;;;;;5.18;1.10;;;20.30;99.90;;;;;;6249688;28;19921;-75
2022/07/09 13:18:12;;;;;;;4.53;0.82;;;20.20;99.90;;;;;;6281215;28;20175;-75
2022/07/09 13:21:13;;;;;;;6.03;1.00;;;19.80;99.90;;;;;;6249801;28;20041;-75
2022/07/09 13:24:15;;;;;;;6.15;1.08;;;19.60;99.90;;;;;;6281770;28;20049;-75
2022/07/09 13:27:18;;;;;;;7.07;0.93;;;19.60;99.90;;;;;;6249941;28;20042;-75
2022/07/09 13:30:21;;;;;;;3.90;1.10;;;19.60;99.90;;;;;;6249443;28;20056;-74
2022/07/09 13:33:25;;;;;;;3.97;1.00;;;19.60;99.90;;;;;;6281490;28;20072;-75
2022/07/09 13:36:27;;;;;;;6.22;1.40;;;19.60;99.90;;;;;;6249037;28;20046;-75
2022/07/09 13:39:29;;;;;;;8.07;1.50;;;19.70;99.90;;;;;;6248764;28;20096;-74
2022/07/09 13:42:31;;;;;;;7.10;1.20;;;19.80;99.90;;;;;;6280817;28;20061;-75
2022/07/09 13:45:33;;;;;;;3.80;1.02;;;19.80;99.90;;;;;;6248012;28;20060;-75
2022/07/09 13:48:36;;;;;;;5.75;1.50;;;19.60;99.90;;;;;;6280811;28;20053;-75
2022/07/09 13:51:38;;;;;;;4.25;1.25;;;19.30;99.90;;;;;;6248654;28;20417;-75
2022/07/09 13:54:40;;;;;;;7.85;1.30;;;18.90;99.90;;;;;;6248477;28;20482;-75
2022/07/09 13:57:42;;;;;;;5.90;1.20;;;19.10;99.90;;;;;;6248690;28;20125;-75
2022/07/09 14:00:44;;;;;;;6.53;1.00;;;19.00;99.90;;;;;;6280774;28;20434;-75
2022/07/09 14:03:48;;;;;;;4.82;1.45;;;18.80;99.90;;;;;;6280590;28;20109;-75
2022/07/09 14:06:50;;;;;;;6.40;1.38;;;18.70;99.90;;;;;;6248159;28;20517;-74
2022/07/09 14:09:52;;;;;;;5.47;1.10;;;18.50;99.90;;;;;;6280661;28;20049;-75
2022/07/09 14:12:54;;;;;;;3.33;1.23;;;18.60;99.90;;;;;;6280462;28;20114;-76
2022/07/09 14:15:57;;;;;;;5.93;1.30;;;18.80;99.90;;;;;;6247927;28;20042;-75
2022/07/09 14:19:00;;;;;;;6.00;1.55;;;19.00;99.90;;;;;;6279645;28;20057;-75
2022/07/09 14:22:03;;;;;;;6.47;1.40;;;19.10;99.90;;;;;;6280241;28;20053;-75
2022/07/09 14:25:05;;;;;;;4.50;1.23;;;19.20;99.90;;;;;;6247929;28;20055;-73
2022/07/09 14:28:07;;;;;;;4.45;1.30;;;19.00;99.90;;;;;;6279544;28;20107;-73
2022/07/09 14:31:09;;;;;;;6.57;1.60;;;18.90;99.90;;;;;;6279588;28;20442;-76
2022/07/09 14:34:13;;;;;;;7.80;2.08;;;18.80;99.90;;;;;;6247779;28;20061;-76
2022/07/09 14:37:15;;;;;;;3.95;1.70;;;18.70;99.90;;;;;;6279625;28;20045;-75
2022/07/09 14:40:17;;;;;;;9.25;1.98;;;18.90;99.90;;;;;;6247588;28;20080;-75
2022/07/09 14:43:19;;;;;;;3.95;1.23;;;19.30;99.90;;;;;;6247858;28;20041;-75
2022/07/09 14:46:21;;;;;;;4.72;1.10;;;19.50;99.90;;;;;;6279400;28;20060;-75
2022/07/09 14:49:24;;;;;;;7.47;2.60;;;19.40;99.90;;;;;;6247100;28;20072;-75
2022/07/09 14:52:26;;;;;;;9.90;2.53;;;19.30;99.90;;;;;;6247622;28;20098;-75
2022/07/09 14:55:29;;;;;;;7.93;1.75;;;19.10;99.90;;;;;;6247174;28;20530;-75
2022/07/09 14:58:31;;;;;;;3.60;1.30;;;19.00;99.90;;;;;;6246877;28;20049;-75
2022/07/09 15:01:33;;;;;;;4.88;1.65;;;19.10;99.90;;;;;;6279363;28;20061;-76
2022/07/09 15:04:37;;;;;;;5.00;1.38;;;19.00;99.90;;;;;;6247042;28;20060;-75
2022/07/09 15:07:39;;;;;;;4.03;1.30;;;18.80;99.90;;;;;;6247098;28;20045;-75
2022/07/09 15:10:41;;;;;;;7.60;1.55;;;18.70;99.90;;;;;;6279299;28;20076;-74
2022/07/09 15:13:43;;;;;;;5.97;1.75;;;18.80;99.90;;;;;;6279127;28;20049;-74
2022/07/09 15:16:45;;;;;;;7.00;1.20;;;18.90;99.90;;;;;;6246945;28;20049;-75
2022/07/09 15:19:48;;;;;;;7.47;1.50;;;18.70;99.90;;;;;;6246829;28;20055;-74
2022/07/09 15:22:50;;;;;;;4.10;1.33;;;18.50;99.90;;;;;;6279235;28;20057;-74
2022/07/09 15:25:52;;;;;;;3.63;1.02;;;18.50;99.90;;;;;;6278747;28;20046;-74
2022/07/09 15:28:54;;;;;;;7.15;1.27;;;18.50;99.90;;;;;;6246751;28;20410;-74
2022/07/09 15:31:56;;;;;;;6.50;1.45;;;18.60;99.90;;;;;;6247207;28;20048;-74
2022/07/09 15:34:59;;;;;;;5.15;1.45;;;18.50;99.90;;;;;;6246648;28;20092;-73
2022/07/09 15:38:01;;;;;;;4.15;1.50;;;18.50;99.90;;;;;;6279043;28;20556;-74
2022/07/09 15:41:05;;;;;;;6.28;2.35;;;18.30;99.90;;;;;;6246910;28;20045;-75
2022/07/09 15:44:06;;;;;;;;;;;18.20;99.90;;;;;;6247181;28;20056;-75
2022/07/09 15:47:09;;;;;;;8.15;2.30;;;18.10;99.90;;;;;;6246271;28;19986;-75
2022/07/09 15:50:12;;;;;;;6.50;1.60;;;18.20;99.90;;;;;;6246887;28;20046;-74
2022/07/09 15:53:14;;;;;;;5.13;1.30;;;18.20;99.90;;;;;;6278693;28;20064;-74